createdAt,value
2017-04-21T00:00:52.708Z,49.8
2017-04-21T00:01:54.534Z,49.9
2017-04-21T00:02:56.333Z,49.8
2017-04-21T00:03:58.140Z,49.9
2017-04-21T00:05:00.413Z,50
2017-04-21T00:06:02.214Z,49.9
2017-04-21T00:07:04.049Z,50
2017-04-21T00:08:05.854Z,50
2017-04-21T00:09:08.023Z,50
2017-04-21T00:10:09.834Z,49.9
2017-04-21T00:11:11.690Z,50
2017-04-21T00:12:13.571Z,50
2017-04-21T00:13:15.395Z,50
2017-04-21T00:14:17.198Z,50
2017-04-21T00:15:19.000Z,50
2017-04-21T00:16:20.948Z,50.1
2017-04-21T00:17:22.813Z,50
2017-04-21T00:18:24.635Z,50
2017-04-21T00:19:26.441Z,50
2017-04-21T00:20:28.240Z,50.1
2017-04-21T00:21:30.375Z,50
2017-04-21T00:22:32.173Z,49.9
2017-04-21T00:23:33.970Z,50
2017-04-21T00:24:35.778Z,50
2017-04-21T00:25:37.596Z,50
2017-04-21T00:26:39.732Z,50
2017-04-21T00:27:41.562Z,50.1
2017-04-21T00:28:43.892Z,50.1
2017-04-21T00:29:46.036Z,50.1
2017-04-21T00:30:47.889Z,50.1
2017-04-21T00:31:49.711Z,50.1
2017-04-21T00:32:51.527Z,50.1
2017-04-21T00:33:53.357Z,50.1
2017-04-21T00:34:55.158Z,50.1
2017-04-21T00:35:56.954Z,50.1
2017-04-21T00:36:58.773Z,50.2
2017-04-21T00:38:00.780Z,50.2
2017-04-21T00:39:03.258Z,50.2
2017-04-21T00:40:05.254Z,50.2
2017-04-21T00:41:07.068Z,50.2
2017-04-21T00:42:08.875Z,50.2
2017-04-21T00:43:10.679Z,50.2
2017-04-21T00:44:12.772Z,50.2
2017-04-21T00:45:14.670Z,50.3
2017-04-21T00:46:16.499Z,50.3
2017-04-21T00:47:18.298Z,50.2
2017-04-21T00:48:20.437Z,50.2
2017-04-21T00:49:22.242Z,50.2
2017-04-21T00:50:24.042Z,50.2
2017-04-21T00:51:26.049Z,50.2
2017-04-21T00:52:27.854Z,50.2
2017-04-21T00:53:29.649Z,50.3
2017-04-21T00:54:31.805Z,50.3
2017-04-21T00:55:33.618Z,50.4
2017-04-21T00:56:35.751Z,50.4
2017-04-21T00:57:37.890Z,50.4
2017-04-21T00:58:39.737Z,50.4
2017-04-21T00:59:41.542Z,50.4
2017-04-21T01:00:43.342Z,50.4
2017-04-21T01:01:45.151Z,50.4
2017-04-21T01:02:47.184Z,50.5
2017-04-21T01:03:48.985Z,50.6
2017-04-21T01:04:50.791Z,50.4
2017-04-21T01:05:52.922Z,50.5
2017-04-21T01:06:54.722Z,50.5
2017-04-21T01:07:56.526Z,50.4
2017-04-21T01:08:58.333Z,50.4
2017-04-21T01:10:00.149Z,50.4
2017-04-21T01:11:01.948Z,50.5
2017-04-21T01:12:03.753Z,50.6
2017-04-21T01:13:06.043Z,50.6
2017-04-21T01:14:07.852Z,50.6
2017-04-21T01:15:09.658Z,50.7
2017-04-21T01:16:11.458Z,50.7
2017-04-21T01:17:13.292Z,50.8
2017-04-21T01:18:30.467Z,50.6
2017-04-21T01:19:33.006Z,50.7
2017-04-21T01:20:34.802Z,50.7
2017-04-21T01:21:36.617Z,50.7
2017-04-21T01:22:38.425Z,50.7
2017-04-21T01:23:40.226Z,50.7
2017-04-21T01:24:42.418Z,50.7
2017-04-21T01:25:44.274Z,50.7
2017-04-21T01:26:46.163Z,50.7
2017-04-21T01:27:48.172Z,50.8
2017-04-21T01:28:49.969Z,50.8
2017-04-21T01:29:51.776Z,50.8
2017-04-21T01:30:53.575Z,50.8
2017-04-21T01:31:55.382Z,50.8
2017-04-21T01:32:57.225Z,50.8
2017-04-21T01:33:59.415Z,50.8
2017-04-21T01:35:01.624Z,50.8
2017-04-21T01:36:03.765Z,50.8
2017-04-21T01:37:05.915Z,50.8
2017-04-21T01:38:07.907Z,50.8
2017-04-21T01:39:10.115Z,50.8
2017-04-21T01:40:11.920Z,50.8
2017-04-21T01:41:13.723Z,50.8
2017-04-21T01:42:15.531Z,50.8
2017-04-21T01:43:17.331Z,50.8
2017-04-21T01:44:19.138Z,50.8
2017-04-21T01:45:21.306Z,50.9
2017-04-21T01:46:23.162Z,51
2017-04-21T01:47:25.050Z,51
2017-04-21T01:48:26.858Z,50.9
2017-04-21T01:49:28.656Z,50.9
2017-04-21T01:50:30.473Z,51
2017-04-21T01:51:32.276Z,50.9
2017-04-21T01:52:34.084Z,51.1
2017-04-21T01:53:36.586Z,51.1
2017-04-21T01:54:39.012Z,51.1
2017-04-21T01:55:41.728Z,51.1
2017-04-21T01:56:43.820Z,51.1
2017-04-21T01:57:45.623Z,51.1
2017-04-21T01:58:47.795Z,51.2
2017-04-21T01:59:49.602Z,51.1
2017-04-21T02:00:51.797Z,51.2
2017-04-21T02:01:53.595Z,51.1
2017-04-21T02:02:55.504Z,51.2
2017-04-21T02:03:57.408Z,51.2
2017-04-21T02:04:59.546Z,51.2
2017-04-21T02:06:01.747Z,51.2
2017-04-21T02:07:03.538Z,51.2
2017-04-21T02:08:05.378Z,51.2
2017-04-21T02:09:07.178Z,51.2
2017-04-21T02:10:09.895Z,51.2
2017-04-21T02:11:12.449Z,51.2
2017-04-21T02:12:14.247Z,51.2
2017-04-21T02:13:16.110Z,51.2
2017-04-21T02:14:18.259Z,51.3
2017-04-21T02:15:20.428Z,51.3
2017-04-21T02:16:22.237Z,51.3
2017-04-21T02:17:24.602Z,51.3
2017-04-21T02:18:26.739Z,51.3
2017-04-21T02:19:28.534Z,51.3
2017-04-21T02:20:30.337Z,51.4
2017-04-21T02:21:32.130Z,51.3
2017-04-21T02:22:34.306Z,51.4
2017-04-21T02:23:36.106Z,51.4
2017-04-21T02:24:38.249Z,51.3
2017-04-21T02:25:40.381Z,51.4
2017-04-21T02:26:42.880Z,51.4
2017-04-21T02:29:34.832Z,51.4
2017-04-21T02:30:36.655Z,51.5
2017-04-21T02:31:38.456Z,51.5
2017-04-21T02:32:40.252Z,51.4
2017-04-21T02:33:42.056Z,51.5
2017-04-21T02:34:44.291Z,51.6
2017-04-21T02:35:46.375Z,51.4
2017-04-21T02:36:48.194Z,51.5
2017-04-21T02:37:50.369Z,51.6
2017-04-21T02:38:52.797Z,51.6
2017-04-21T02:39:55.138Z,51.6
2017-04-21T02:40:56.979Z,51.6
2017-04-21T02:41:58.827Z,51.6
2017-04-21T02:43:00.620Z,51.6
2017-04-21T02:44:02.428Z,51.8
2017-04-21T02:45:04.369Z,51.8
2017-04-21T02:46:06.371Z,51.7
2017-04-21T02:47:08.180Z,51.8
2017-04-21T02:48:09.982Z,51.8
2017-04-21T02:49:12.122Z,51.7
2017-04-21T02:50:13.970Z,51.8
2017-04-21T02:51:16.105Z,51.8
2017-04-21T02:52:17.957Z,51.8
2017-04-21T02:53:19.764Z,51.9
2017-04-21T02:54:21.855Z,51.9
2017-04-21T02:55:24.218Z,51.8
2017-04-21T02:56:26.019Z,51.9
2017-04-21T02:57:28.630Z,51.9
2017-04-21T02:58:30.742Z,51.9
2017-04-21T02:59:32.589Z,51.8
2017-04-21T03:00:34.730Z,51.9
2017-04-21T03:01:36.572Z,51.9
2017-04-21T03:02:38.716Z,52
2017-04-21T03:03:40.572Z,51.9
2017-04-21T03:04:42.445Z,52
2017-04-21T03:05:44.634Z,51.9
2017-04-21T03:06:46.457Z,52
2017-04-21T03:07:48.257Z,51.9
2017-04-21T03:08:50.195Z,52
2017-04-21T03:09:52.424Z,52
2017-04-21T03:10:54.226Z,52
2017-04-21T03:11:56.046Z,52
2017-04-21T03:12:57.862Z,52
2017-04-21T03:14:00.006Z,52
2017-04-21T03:15:01.845Z,52
2017-04-21T03:16:03.942Z,52
2017-04-21T03:17:05.808Z,52
2017-04-21T03:18:07.636Z,52
2017-04-21T03:19:09.778Z,52
2017-04-21T03:20:11.919Z,52
2017-04-21T03:21:14.267Z,52
2017-04-21T03:22:16.070Z,52
2017-04-21T03:23:17.871Z,52.1
2017-04-21T03:24:19.723Z,52
2017-04-21T03:25:21.584Z,52
2017-04-21T03:26:23.382Z,52
2017-04-21T03:27:25.591Z,52
2017-04-21T03:28:28.511Z,52.1
2017-04-21T03:29:30.351Z,52.1
2017-04-21T03:30:32.150Z,52.1
2017-04-21T03:31:34.336Z,52.2
2017-04-21T03:32:36.223Z,52.2
2017-04-21T03:33:38.367Z,52.2
2017-04-21T03:34:40.165Z,52.2
2017-04-21T03:35:41.964Z,52.2
2017-04-21T03:36:43.765Z,52.2
2017-04-21T03:37:45.568Z,52.2
2017-04-21T03:38:47.376Z,52.2
2017-04-21T03:39:49.886Z,52.3
2017-04-21T03:40:51.708Z,52.3
2017-04-21T03:41:53.579Z,52.3
2017-04-21T03:42:55.442Z,52.4
2017-04-21T03:43:57.765Z,52.3
2017-04-21T03:44:59.837Z,52.3
2017-04-21T03:46:01.679Z,52.3
2017-04-21T03:47:03.783Z,52.4
2017-04-21T03:48:05.788Z,52.5
2017-04-21T03:49:07.640Z,52.3
2017-04-21T03:50:09.474Z,52.4
2017-04-21T03:51:11.284Z,52.4
2017-04-21T03:52:13.752Z,52.5
2017-04-21T03:53:16.224Z,52.5
2017-04-21T03:54:18.768Z,52.5
2017-04-21T03:55:20.862Z,52.5
2017-04-21T03:56:22.734Z,52.5
2017-04-21T03:57:24.944Z,52.5
2017-04-21T03:58:26.811Z,52.5
2017-04-21T03:59:28.626Z,52.6
2017-04-21T04:00:30.426Z,52.6
2017-04-21T04:01:32.231Z,52.7
2017-04-21T04:02:34.028Z,52.7
2017-04-21T04:03:36.172Z,52.7
2017-04-21T04:04:38.391Z,52.7
2017-04-21T04:05:40.195Z,52.6
2017-04-21T04:06:41.995Z,52.7
2017-04-21T04:07:43.874Z,52.6
2017-04-21T04:08:45.738Z,52.6
2017-04-21T04:09:47.606Z,52.7
2017-04-21T04:10:49.428Z,52.6
2017-04-21T04:11:51.224Z,52.8
2017-04-21T04:12:53.028Z,52.8
2017-04-21T04:13:54.860Z,52.7
2017-04-21T04:14:56.714Z,52.8
2017-04-21T04:15:58.850Z,52.8
2017-04-21T04:17:00.712Z,52.8
2017-04-21T04:18:02.537Z,52.8
2017-04-21T04:19:04.675Z,52.9
2017-04-21T04:20:06.532Z,52.9
2017-04-21T04:21:08.332Z,52.9
2017-04-21T04:22:10.138Z,52.9
2017-04-21T04:23:11.967Z,52.8
2017-04-21T04:24:13.786Z,52.8
2017-04-21T04:25:15.659Z,52.9
2017-04-21T04:26:17.498Z,52.9
2017-04-21T04:27:19.297Z,52.9
2017-04-21T04:28:21.105Z,52.8
2017-04-21T04:29:22.902Z,52.8
2017-04-21T04:30:24.853Z,52.8
2017-04-21T04:31:26.687Z,52.9
2017-04-21T04:32:28.858Z,52.8
2017-04-21T04:33:30.660Z,52.8
2017-04-21T04:34:32.464Z,52.9
2017-04-21T04:35:34.599Z,52.9
2017-04-21T04:36:36.741Z,52.9
2017-04-21T04:37:38.615Z,52.9
2017-04-21T04:38:40.443Z,53
2017-04-21T04:39:42.238Z,52.9
2017-04-21T04:40:44.044Z,53
2017-04-21T04:41:46.303Z,53.1
2017-04-21T04:42:48.521Z,53.2
2017-04-21T04:43:50.897Z,53.2
2017-04-21T04:44:53.522Z,53.2
2017-04-21T04:45:55.391Z,53.2
2017-04-21T04:46:57.194Z,53.2
2017-04-21T04:47:58.988Z,53.1
2017-04-21T04:49:00.791Z,53.2
2017-04-21T04:50:02.601Z,53.2
2017-04-21T04:51:04.403Z,53.1
2017-04-21T04:52:06.566Z,53.2
2017-04-21T04:53:08.438Z,53.2
2017-04-21T04:54:10.392Z,53.2
2017-04-21T04:55:12.830Z,53.3
2017-04-21T04:56:14.977Z,53.3
2017-04-21T04:57:17.153Z,53.2
2017-04-21T04:58:18.958Z,53.3
2017-04-21T04:59:20.758Z,53.3
2017-04-21T05:00:22.566Z,53.3
2017-04-21T05:01:24.700Z,53.3
2017-04-21T05:02:26.515Z,53.3
2017-04-21T05:03:28.318Z,53.3
2017-04-21T05:04:30.126Z,53.4
2017-04-21T05:05:32.187Z,53.5
2017-04-21T05:06:34.254Z,53.5
2017-04-21T05:07:36.062Z,53.6
2017-04-21T05:08:37.860Z,53.7
2017-04-21T05:09:39.676Z,53.6
2017-04-21T05:10:41.480Z,53.6
2017-04-21T05:11:43.303Z,53.6
2017-04-21T05:12:45.097Z,53.6
2017-04-21T05:13:46.915Z,53.6
2017-04-21T05:14:49.058Z,53.6
2017-04-21T05:15:50.865Z,53.5
2017-04-21T05:16:53.017Z,53.6
2017-04-21T05:17:54.860Z,53.7
2017-04-21T05:18:56.663Z,53.7
2017-04-21T05:19:58.468Z,53.7
2017-04-21T05:21:00.276Z,53.6
2017-04-21T05:22:02.367Z,53.6
2017-04-21T05:23:04.218Z,53.7
2017-04-21T05:24:06.310Z,53.7
2017-04-21T05:25:23.352Z,53.7
2017-04-21T05:26:25.180Z,53.7
2017-04-21T05:27:26.981Z,53.7
2017-04-21T05:28:29.117Z,53.8
2017-04-21T05:29:30.947Z,53.8
2017-04-21T05:30:32.756Z,53.8
2017-04-21T05:31:34.558Z,53.8
2017-04-21T05:32:36.633Z,53.9
2017-04-21T05:33:38.441Z,53.9
2017-04-21T05:34:40.305Z,53.9
2017-04-21T05:35:42.157Z,54
2017-04-21T05:36:43.956Z,53.9
2017-04-21T05:37:45.768Z,54
2017-04-21T05:38:47.944Z,53.8
2017-04-21T05:39:49.759Z,54
2017-04-21T05:40:52.183Z,53.9
2017-04-21T05:41:54.063Z,54
2017-04-21T05:42:55.871Z,54
2017-04-21T05:43:57.765Z,54
2017-04-21T05:44:59.901Z,54
2017-04-21T05:46:01.709Z,54
2017-04-21T05:47:03.519Z,54.1
2017-04-21T05:48:05.321Z,54
2017-04-21T05:49:07.121Z,54.2
2017-04-21T05:50:09.618Z,54.2
2017-04-21T05:51:11.445Z,54.2
2017-04-21T05:52:13.251Z,54.2
2017-04-21T05:53:15.346Z,54.2
2017-04-21T05:54:17.198Z,54.3
2017-04-21T05:55:19.220Z,54.2
2017-04-21T05:56:21.271Z,54.2
2017-04-21T05:57:23.307Z,54.2
2017-04-21T05:58:25.176Z,54.2
2017-04-21T05:59:27.355Z,54.1
2017-04-21T06:00:29.201Z,54.2
2017-04-21T06:01:31.032Z,54.3
2017-04-21T06:02:32.853Z,54.1
2017-04-21T06:03:34.656Z,54.3
2017-04-21T06:04:36.455Z,54.2
2017-04-21T06:05:38.272Z,54.3
2017-04-21T06:06:40.525Z,54.2
2017-04-21T06:07:42.700Z,54.4
2017-04-21T06:08:44.852Z,54.4
2017-04-21T06:09:46.982Z,54.4
2017-04-21T06:10:48.792Z,54.3
2017-04-21T06:11:50.591Z,54.4
2017-04-21T06:12:52.394Z,54.4
2017-04-21T06:13:54.193Z,54.4
2017-04-21T06:14:56.025Z,54.4
2017-04-21T06:15:57.828Z,54.4
2017-04-21T06:16:59.988Z,54.4
2017-04-21T06:18:01.854Z,54.4
2017-04-21T06:19:03.658Z,54.4
2017-04-21T06:20:05.459Z,54.4
2017-04-21T06:21:07.259Z,54.5
2017-04-21T06:22:09.056Z,54.5
2017-04-21T06:23:10.857Z,54.5
2017-04-21T06:24:12.662Z,54.7
2017-04-21T06:25:14.457Z,54.6
2017-04-21T06:26:16.280Z,54.6
2017-04-21T06:27:18.084Z,54.5
2017-04-21T06:28:19.903Z,54.6
2017-04-21T06:29:21.781Z,54.6
2017-04-21T06:30:23.582Z,54.7
2017-04-21T06:31:25.382Z,54.7
2017-04-21T06:32:27.526Z,54.7
2017-04-21T06:33:29.326Z,54.7
2017-04-21T06:34:31.126Z,54.8
2017-04-21T06:35:32.923Z,54.8
2017-04-21T06:36:34.730Z,54.8
2017-04-21T06:37:36.534Z,54.8
2017-04-21T06:38:38.331Z,54.9
2017-04-21T06:39:40.144Z,54.8
2017-04-21T06:40:42.023Z,54.8
2017-04-21T06:41:43.829Z,54.9
2017-04-21T06:42:45.632Z,54.9
2017-04-21T06:43:47.428Z,54.9
2017-04-21T06:44:49.237Z,54.8
2017-04-21T06:45:51.055Z,54.8
2017-04-21T06:46:52.856Z,54.8
2017-04-21T06:47:54.658Z,54.9
2017-04-21T06:48:56.463Z,54.7
2017-04-21T06:49:58.265Z,54.8
2017-04-21T06:51:00.063Z,54.8
2017-04-21T06:52:01.968Z,54.8
2017-04-21T06:53:03.801Z,54.9
2017-04-21T06:54:05.603Z,54.9
2017-04-21T06:55:07.403Z,54.9
2017-04-21T06:56:09.205Z,54.9
2017-04-21T06:57:11.344Z,55
2017-04-21T06:58:13.494Z,55
2017-04-21T06:59:15.657Z,54.9
2017-04-21T07:00:17.455Z,54.9
2017-04-21T07:01:19.596Z,55
2017-04-21T07:02:21.733Z,55
2017-04-21T07:03:23.536Z,55
2017-04-21T07:04:25.456Z,55.1
2017-04-21T07:05:27.589Z,55.1
2017-04-21T07:06:29.418Z,55.2
2017-04-21T07:07:31.902Z,55.2
2017-04-21T07:08:33.702Z,55.2
2017-04-21T07:09:35.505Z,55.2
2017-04-21T07:10:37.310Z,55.2
2017-04-21T07:11:39.110Z,55.2
2017-04-21T07:12:40.913Z,55.1
2017-04-21T07:13:42.729Z,55.2
2017-04-21T07:14:44.795Z,55.5
2017-04-21T07:15:46.811Z,55.5
2017-04-21T07:16:48.871Z,55.4
2017-04-21T07:17:51.104Z,55.5
2017-04-21T07:18:53.428Z,55.4
2017-04-21T07:19:55.860Z,55.4
2017-04-21T07:20:58.139Z,55.5
2017-04-21T07:22:00.408Z,55.4
2017-04-21T07:23:02.610Z,55.4
2017-04-21T07:24:05.005Z,55.4
2017-04-21T07:25:07.114Z,55.3
2017-04-21T07:26:09.213Z,55.3
2017-04-21T07:27:11.294Z,55.3
2017-04-21T07:28:14.062Z,55.2
2017-04-21T07:29:16.203Z,55.2
2017-04-21T07:30:18.001Z,55.3
2017-04-21T07:31:19.799Z,55.4
2017-04-21T07:32:21.598Z,55.3
2017-04-21T07:33:23.397Z,55.4
2017-04-21T07:34:25.197Z,55.4
2017-04-21T07:35:27.349Z,55.5
2017-04-21T07:36:29.165Z,55.5
2017-04-21T07:37:30.966Z,55.4
2017-04-21T07:38:32.813Z,55.5
2017-04-21T07:39:34.955Z,55.6
2017-04-21T07:40:36.778Z,55.5
2017-04-21T07:42:40.861Z,55.6
2017-04-21T07:43:42.665Z,55.7
2017-04-21T07:44:44.811Z,55.8
2017-04-21T07:45:46.950Z,55.9
2017-04-21T07:46:48.754Z,56
2017-04-21T07:47:50.562Z,55.9
2017-04-21T07:48:52.365Z,56
2017-04-21T07:49:54.166Z,55.9
2017-04-21T07:50:55.986Z,55.8
2017-04-21T07:51:57.789Z,55.6
2017-04-21T07:52:59.589Z,55.4
2017-04-21T07:54:01.394Z,55.4
2017-04-21T07:55:03.333Z,55.3
2017-04-21T07:56:05.140Z,55.4
2017-04-21T07:57:06.936Z,55.5
2017-04-21T07:58:08.743Z,55.5
2017-04-21T07:59:10.559Z,55.6
2017-04-21T08:01:50.452Z,55.6
2017-04-21T08:02:53.247Z,55.6
2017-04-21T08:03:55.047Z,55.6
2017-04-21T08:04:56.857Z,55.7
2017-04-21T08:05:58.666Z,55.7
2017-04-21T08:07:00.480Z,55.6
2017-04-21T08:08:02.282Z,55.6
2017-04-21T08:09:04.090Z,55.6
2017-04-21T08:10:05.893Z,55.6
2017-04-21T08:11:08.546Z,55.6
2017-04-21T08:12:10.349Z,55.6
2017-04-21T08:13:12.151Z,55.6
2017-04-21T08:14:13.947Z,55.6
2017-04-21T08:15:15.745Z,55.6
2017-04-21T08:16:17.576Z,55.6
2017-04-21T08:17:19.729Z,55.6
2017-04-21T08:18:21.523Z,55.5
2017-04-21T08:19:23.680Z,55.3
2017-04-21T08:20:26.166Z,55.4
2017-04-21T08:21:27.963Z,55.5
2017-04-21T08:22:29.860Z,55.6
2017-04-21T08:23:31.661Z,55.7
2017-04-21T08:24:33.472Z,55.7
2017-04-21T08:25:35.277Z,55.7
2017-04-21T08:26:37.416Z,55.6
2017-04-21T08:27:39.214Z,55.7
2017-04-21T08:28:41.020Z,55.7
2017-04-21T08:29:42.828Z,55.8
2017-04-21T08:30:44.629Z,55.7
2017-04-21T08:31:46.732Z,55.8
2017-04-21T08:32:48.821Z,55.8
2017-04-21T08:33:50.630Z,55.7
2017-04-21T08:34:52.434Z,55.6
2017-04-21T08:35:54.236Z,55.8
2017-04-21T08:36:56.039Z,55.7
2017-04-21T08:37:58.196Z,55.8
2017-04-21T08:38:59.999Z,55.7
2017-04-21T08:40:01.798Z,55.7
2017-04-21T08:41:03.607Z,55.7
2017-04-21T08:42:05.413Z,55.7
2017-04-21T08:43:07.552Z,55.7
2017-04-21T08:44:09.356Z,55.5
2017-04-21T08:45:11.156Z,55.6
2017-04-21T08:46:12.969Z,55.6
2017-04-21T08:47:14.777Z,55.7
2017-04-21T08:48:16.583Z,55.9
2017-04-21T08:49:18.726Z,55.9
2017-04-21T08:50:20.878Z,55.9
2017-04-21T08:51:22.687Z,56
2017-04-21T08:52:24.497Z,56
2017-04-21T08:53:26.401Z,56
2017-04-21T08:54:28.334Z,56
2017-04-21T08:55:30.135Z,55.7
2017-04-21T08:56:31.937Z,55.5
2017-04-21T08:57:33.746Z,55.5
2017-04-21T08:58:35.551Z,55.6
2017-04-21T08:59:37.359Z,55.6
2017-04-21T09:00:39.155Z,55.6
2017-04-21T09:01:40.987Z,55.8
2017-04-21T09:02:42.783Z,55.8
2017-04-21T09:03:44.588Z,55.8
2017-04-21T09:04:46.487Z,55.7
2017-04-21T09:05:48.423Z,55.8
2017-04-21T09:06:50.237Z,55.7
2017-04-21T09:07:52.043Z,55.6
2017-04-21T09:08:53.850Z,55.5
2017-04-21T09:09:55.653Z,55.5
2017-04-21T09:10:57.461Z,55.7
2017-04-21T09:11:59.963Z,55.6
2017-04-21T09:13:01.770Z,55.6
2017-04-21T09:14:03.911Z,55.6
2017-04-21T09:15:06.055Z,55.6
2017-04-21T09:16:07.959Z,55.4
2017-04-21T09:17:09.829Z,55.6
2017-04-21T09:18:11.636Z,55.6
2017-04-21T09:19:13.448Z,55.6
2017-04-21T09:20:15.255Z,55.6
2017-04-21T09:21:17.058Z,55.6
2017-04-21T09:22:18.858Z,55.6
2017-04-21T09:23:20.664Z,55.5
2017-04-21T09:24:22.472Z,55.6
2017-04-21T09:25:24.277Z,55.6
2017-04-21T09:26:26.082Z,55.7
2017-04-21T09:27:27.971Z,55.5
2017-04-21T09:28:30.168Z,55.4
2017-04-21T09:29:31.991Z,55.3
2017-04-21T09:31:05.458Z,55.5
2017-04-21T09:34:33.891Z,55.6
2017-04-21T09:36:35.904Z,55.4
2017-04-21T09:37:37.788Z,55
2017-04-21T09:38:54.281Z,55
2017-04-21T09:39:56.338Z,54.9
2017-04-21T09:40:58.147Z,54.7
2017-04-21T09:42:13.062Z,54.8
2017-04-21T09:44:00.489Z,54.7
2017-04-21T09:45:02.297Z,54.5
2017-04-21T09:46:04.099Z,54.4
2017-04-21T09:47:05.904Z,54.4
2017-04-21T09:48:07.706Z,54.5
2017-04-21T09:49:09.524Z,54.4
2017-04-21T09:50:54.009Z,54.2
2017-04-21T09:56:33.566Z,54.1
2017-04-21T10:08:33.359Z,53.9
2017-04-21T10:09:59.694Z,54.7
2017-04-21T10:11:01.502Z,54.7
2017-04-21T10:12:03.649Z,54.8
2017-04-21T10:13:05.456Z,54.8
2017-04-21T10:14:07.608Z,54.8
2017-04-21T10:15:09.566Z,54.5
2017-04-21T10:16:11.537Z,54.4
2017-04-21T10:17:13.338Z,54.5
2017-04-21T10:18:15.148Z,54.3
2017-04-21T10:19:16.955Z,54.8
2017-04-21T10:20:19.096Z,54.5
2017-04-21T10:21:20.909Z,54.7
2017-04-21T10:22:22.716Z,54.8
2017-04-21T10:23:24.523Z,54.7
2017-04-21T10:24:26.669Z,54.8
2017-04-21T10:25:28.473Z,54.5
2017-04-21T10:26:30.279Z,54.9
2017-04-21T10:27:32.087Z,54.5
2017-04-21T10:28:34.148Z,54.7
2017-04-21T10:29:36.303Z,54.5
2017-04-21T10:30:38.116Z,54.9
2017-04-21T10:31:39.931Z,54.5
2017-04-21T10:32:41.751Z,54.6
2017-04-21T10:33:43.556Z,54.5
2017-04-21T10:34:45.364Z,54.3
2017-04-21T10:35:47.169Z,54.3
2017-04-21T10:36:48.982Z,54.4
2017-04-21T10:37:50.783Z,54.3
2017-04-21T10:38:52.588Z,54.4
2017-04-21T10:39:54.420Z,54.2
2017-04-21T10:40:56.271Z,54.4
2017-04-21T10:41:58.085Z,54.5
2017-04-21T10:43:00.222Z,54.5
2017-04-21T10:44:02.028Z,54.5
2017-04-21T10:45:03.838Z,54.4
2017-04-21T10:46:05.640Z,54.2
2017-04-21T10:47:07.456Z,54.2
2017-04-21T10:48:09.261Z,54.2
2017-04-21T10:49:11.071Z,54.3
2017-04-21T10:50:12.878Z,54.3
2017-04-21T10:51:14.691Z,54.2
2017-04-21T10:52:16.541Z,54.1
2017-04-21T10:53:18.449Z,54
2017-04-21T10:54:20.264Z,53.8
2017-04-21T10:55:22.069Z,53.8
2017-04-21T10:56:23.890Z,53.9
2017-04-21T10:57:25.702Z,53.9
2017-04-21T10:58:27.510Z,53.8
2017-04-21T10:59:29.325Z,54
2017-04-21T11:00:31.130Z,54
2017-04-21T11:01:32.938Z,54.1
2017-04-21T11:02:34.747Z,54.1
2017-04-21T11:03:36.891Z,54.1
2017-04-21T11:04:38.699Z,54
2017-04-21T11:05:40.761Z,54
2017-04-21T11:06:42.575Z,54
2017-04-21T11:07:44.381Z,54
2017-04-21T11:08:46.191Z,53.9
2017-04-21T11:09:48.002Z,54
2017-04-21T11:10:49.811Z,54
2017-04-21T11:11:51.620Z,54.2
2017-04-21T11:12:53.427Z,54.3
2017-04-21T11:13:55.582Z,54.1
2017-04-21T11:14:57.391Z,54
2017-04-21T11:15:59.205Z,53.9
2017-04-21T11:17:01.158Z,54
2017-04-21T11:18:03.041Z,53.8
2017-04-21T11:19:04.846Z,54
2017-04-21T11:20:06.653Z,54.2
2017-04-21T11:21:08.458Z,54.2
2017-04-21T11:22:10.261Z,54.2
2017-04-21T11:23:12.080Z,53.9
2017-04-21T11:24:13.892Z,53.4
2017-04-21T11:25:15.700Z,53.1
2017-04-21T11:26:17.510Z,52.8
2017-04-21T11:27:19.315Z,52.9
2017-04-21T11:28:21.176Z,52.8
2017-04-21T11:29:22.980Z,52.9
2017-04-21T11:30:24.794Z,52.8
2017-04-21T11:31:26.602Z,52.8
2017-04-21T11:32:28.416Z,52.8
2017-04-21T11:33:30.227Z,52.8
2017-04-21T11:34:32.387Z,52.8
2017-04-21T11:35:34.193Z,53
2017-04-21T11:36:36.342Z,52.9
2017-04-21T11:37:38.153Z,53
2017-04-21T11:38:39.973Z,53
2017-04-21T11:39:41.783Z,53
2017-04-21T11:40:43.707Z,53.2
2017-04-21T11:41:45.518Z,53
2017-04-21T11:42:47.333Z,53
2017-04-21T11:43:49.154Z,53
2017-04-21T11:44:51.300Z,53.1
2017-04-21T11:45:53.109Z,53.1
2017-04-21T11:46:54.921Z,53.2
2017-04-21T11:47:56.724Z,53.2
2017-04-21T11:48:58.531Z,53.2
2017-04-21T11:50:00.341Z,53.3
2017-04-21T11:51:02.151Z,53.3
2017-04-21T11:52:03.961Z,53.5
2017-04-21T11:53:06.108Z,53.4
2017-04-21T11:54:07.962Z,53.3
2017-04-21T11:55:09.775Z,53.2
2017-04-21T11:56:11.582Z,53.5
2017-04-21T11:57:13.393Z,53.2
2017-04-21T11:58:15.196Z,53.3
2017-04-21T11:59:17.011Z,53.3
2017-04-21T12:00:18.818Z,53.4
2017-04-21T12:01:20.627Z,53.4
2017-04-21T12:02:22.435Z,53.3
2017-04-21T12:03:24.243Z,53.2
2017-04-21T12:04:26.106Z,53.1
2017-04-21T12:05:27.984Z,53
2017-04-21T12:06:29.792Z,53.1
2017-04-21T12:07:31.598Z,52.9
2017-04-21T12:08:33.402Z,52.9
2017-04-21T12:09:35.724Z,53
2017-04-21T12:10:37.541Z,53.1
2017-04-21T12:11:39.352Z,53
2017-04-21T12:12:41.161Z,53.1
2017-04-21T12:13:42.987Z,53.1
2017-04-21T12:14:44.799Z,53.2
2017-04-21T12:15:46.610Z,53.1
2017-04-21T12:16:48.424Z,53.2
2017-04-21T12:17:50.231Z,53
2017-04-21T12:18:52.045Z,53
2017-04-21T12:19:53.855Z,53.1
2017-04-21T12:20:55.658Z,53.2
2017-04-21T12:21:57.468Z,53.2
2017-04-21T12:22:59.629Z,53.2
2017-04-21T12:24:01.440Z,53.4
2017-04-21T12:25:03.246Z,53.3
2017-04-21T12:26:05.057Z,53.2
2017-04-21T12:27:06.864Z,53.2
2017-04-21T12:28:08.674Z,53.2
2017-04-21T12:29:10.677Z,53.2
2017-04-21T12:30:12.741Z,53.2
2017-04-21T12:31:14.549Z,53.2
2017-04-21T12:32:16.700Z,53.2
2017-04-21T12:33:18.510Z,53.2
2017-04-21T12:34:20.317Z,53.3
2017-04-21T12:35:22.463Z,53.4
2017-04-21T12:36:24.275Z,53.3
2017-04-21T12:37:26.081Z,53.1
2017-04-21T12:38:27.896Z,53
2017-04-21T12:39:29.708Z,53.2
2017-04-21T12:40:31.519Z,53.2
2017-04-21T12:41:33.369Z,53.3
2017-04-21T12:42:35.180Z,53.2
2017-04-21T12:43:36.986Z,53.2
2017-04-21T12:44:38.793Z,53.1
2017-04-21T12:45:40.608Z,53.1
2017-04-21T12:46:42.412Z,53.1
2017-04-21T12:47:44.222Z,53
2017-04-21T12:48:46.030Z,52.9
2017-04-21T12:49:47.980Z,52.8
2017-04-21T12:50:50.495Z,52.7
2017-04-21T12:51:52.946Z,52.7
2017-04-21T12:52:55.795Z,52.7
2017-04-21T12:53:58.743Z,52.7
2017-04-21T12:55:00.776Z,52.7
2017-04-21T12:56:02.855Z,52.6
2017-04-21T12:57:04.934Z,52.6
2017-04-21T12:58:07.080Z,52.5
2017-04-21T12:59:09.157Z,52.5
2017-04-21T13:00:11.583Z,52.5
2017-04-21T13:01:13.634Z,52.7
2017-04-21T13:02:15.808Z,52.8
2017-04-21T13:03:17.930Z,52.8
2017-04-21T13:04:20.692Z,52.9
2017-04-21T13:05:22.726Z,52.9
2017-04-21T13:06:24.859Z,53
2017-04-21T13:07:26.890Z,52.9
2017-04-21T13:08:29.040Z,52.8
2017-04-21T13:09:31.091Z,52.7
2017-04-21T13:10:33.104Z,52.7
2017-04-21T13:11:35.118Z,52.8
2017-04-21T13:12:37.661Z,52.7
2017-04-21T13:13:39.669Z,52.7
2017-04-21T13:14:42.074Z,52.6
2017-04-21T13:15:44.508Z,52.8
2017-04-21T13:16:46.619Z,52.7
2017-04-21T13:17:48.636Z,52.8
2017-04-21T13:18:51.209Z,52.7
2017-04-21T13:19:53.300Z,52.7
2017-04-21T13:20:55.369Z,52.7
2017-04-21T13:21:57.396Z,52.8
2017-04-21T13:22:59.706Z,52.8
2017-04-21T13:24:01.749Z,52.8
2017-04-21T13:25:04.045Z,52.8
2017-04-21T13:26:06.095Z,52.8
2017-04-21T13:27:08.004Z,52.9
2017-04-21T13:28:09.989Z,53
2017-04-21T13:29:12.082Z,52.9
2017-04-21T13:30:14.367Z,52.9
2017-04-21T13:31:16.177Z,53
2017-04-21T13:32:18.321Z,53
2017-04-21T13:33:20.193Z,53.2
2017-04-21T13:34:22.035Z,53.2
2017-04-21T13:35:24.128Z,53.3
2017-04-21T13:36:26.332Z,53.3
2017-04-21T13:37:28.175Z,53.5
2017-04-21T13:38:30.270Z,53.4
2017-04-21T13:39:32.138Z,53.5
2017-04-21T13:40:33.962Z,53.5
2017-04-21T13:41:35.803Z,53.6
2017-04-21T13:42:37.947Z,53.6
2017-04-21T13:43:40.104Z,53.7
2017-04-21T13:44:41.926Z,53.7
2017-04-21T13:45:43.734Z,53.8
2017-04-21T13:46:45.550Z,53.9
2017-04-21T13:47:47.353Z,53.8
2017-04-21T13:48:49.553Z,53.7
2017-04-21T13:49:51.360Z,53.6
2017-04-21T13:50:53.187Z,53.7
2017-04-21T13:51:55.737Z,53.8
2017-04-21T13:52:57.880Z,53.9
2017-04-21T13:54:00.085Z,53.9
2017-04-21T13:55:01.906Z,53.8
2017-04-21T13:56:03.717Z,54
2017-04-21T13:57:05.521Z,54
2017-04-21T13:58:07.330Z,54.2
2017-04-21T13:59:09.137Z,54.3
2017-04-21T14:00:10.992Z,54.4
2017-04-21T14:01:13.149Z,54.4
2017-04-21T14:02:15.175Z,54.4
2017-04-21T14:03:18.301Z,54.4
2017-04-21T14:04:20.109Z,54.4
2017-04-21T14:05:22.112Z,54.4
2017-04-21T14:06:24.341Z,54.5
2017-04-21T14:07:26.580Z,54.8
2017-04-21T14:08:28.392Z,54.6
2017-04-21T14:09:30.207Z,54.9
2017-04-21T14:10:32.014Z,54.8
2017-04-21T14:11:33.823Z,55.1
2017-04-21T14:12:35.644Z,55.1
2017-04-21T14:13:37.553Z,55.4
2017-04-21T14:14:39.421Z,55.3
2017-04-21T14:15:41.229Z,55.2
2017-04-21T14:16:43.055Z,55.2
2017-04-21T14:17:45.262Z,54.9